<?xml version="1.0" encoding="UTF-8" standalone="no" ?><gpx xmlns="http://www.topografix.com/GPX/1/1" xmlns:gpxx="http://www.garmin.com/xmlschemas/GpxExtensions/v3" xmlns:gpxtrkx="http://www.garmin.com/xmlschemas/TrackStatsExtension/v1" xmlns:wptx1="http://www.garmin.com/xmlschemas/WaypointExtension/v1" xmlns:gpxtpx="http://www.garmin.com/xmlschemas/TrackPointExtension/v1" creator="Oregon 700" version="1.1" xmlns:xsi="http://www.w3.org/2001/XMLSchema-instance" xsi:schemaLocation="http://www.topografix.com/GPX/1/1 http://www.topografix.com/GPX/1/1/gpx.xsd http://www.garmin.com/xmlschemas/GpxExtensions/v3 http://www8.garmin.com/xmlschemas/GpxExtensionsv3.xsd http://www.garmin.com/xmlschemas/TrackStatsExtension/v1 http://www8.garmin.com/xmlschemas/TrackStatsExtension.xsd http://www.garmin.com/xmlschemas/WaypointExtension/v1 http://www8.garmin.com/xmlschemas/WaypointExtensionv1.xsd http://www.garmin.com/xmlschemas/TrackPointExtension/v1 http://www.garmin.com/xmlschemas/TrackPointExtensionv1.xsd"><metadata><link href="http://www.garmin.com"><text>Garmin International</text></link><time>2023-08-23T13:51:49Z</time></metadata><trk><name>Current Track: 23 AUG 2023 09:55</name><extensions><gpxx:TrackExtension><gpxx:DisplayColor>Cyan</gpxx:DisplayColor></gpxx:TrackExtension><gpxtrkx:TrackStatsExtension><gpxtrkx:Distance>4748.000</gpxtrkx:Distance><gpxtrkx:TimerTime>9527</gpxtrkx:TimerTime><gpxtrkx:TotalElapsedTime>17763</gpxtrkx:TotalElapsedTime><gpxtrkx:MovingTime>6482</gpxtrkx:MovingTime><gpxtrkx:StoppedTime>3046</gpxtrkx:StoppedTime><gpxtrkx:MovingSpeed>0.733</gpxtrkx:MovingSpeed><gpxtrkx:MaxSpeed>1.379</gpxtrkx:MaxSpeed><gpxtrkx:MaxElevation>0.000</gpxtrkx:MaxElevation><gpxtrkx:MinElevation>-102.432</gpxtrkx:MinElevation><gpxtrkx:Ascent>87.000</gpxtrkx:Ascent><gpxtrkx:Descent>77.554</gpxtrkx:Descent><gpxtrkx:AvgAscentRate>0.036</gpxtrkx:AvgAscentRate><gpxtrkx:MaxAscentRate>0.065</gpxtrkx:MaxAscentRate><gpxtrkx:AvgDescentRate>0.025</gpxtrkx:AvgDescentRate><gpxtrkx:MaxDescentRate>-0.075</gpxtrkx:MaxDescentRate><gpxtrkx:Calories>232</gpxtrkx:Calories></gpxtrkx:TrackStatsExtension></extensions><trkseg><trkpt lat="52.0029692911" lon="-2.0538702887"><ele>-100.06</ele><time>2023-08-23T08:55:46Z</time></trkpt><trkpt lat="52.0029915031" lon="-2.0539457258"><ele>-99.81</ele><time>2023-08-23T08:56:14Z</time></trkpt><trkpt lat="52.0029912516" lon="-2.0541256852"><ele>-100.26</ele><time>2023-08-23T08:56:28Z</time></trkpt><trkpt lat="52.0029875636" lon="-2.0541400183"><ele>-100.30</ele><time>2023-08-23T08:56:29Z</time></trkpt><trkpt lat="52.0028962847" lon="-2.0541800000"><ele>-100.55</ele><time>2023-08-23T08:56:46Z</time></trkpt><trkpt lat="52.0028557163" lon="-2.0541752223"><ele>-102.05</ele><time>2023-08-23T08:56:52Z</time></trkpt><trkpt lat="52.0027371123" lon="-2.0540740527"><ele>-100.36</ele><time>2023-08-23T08:57:08Z</time></trkpt><trkpt lat="52.0025621820" lon="-2.0539400261"><ele>-100.05</ele><time>2023-08-23T08:57:30Z</time></trkpt><trkpt lat="52.0024828054" lon="-2.0538648404"><ele>-100.06</ele><time>2023-08-23T08:57:56Z</time></trkpt><trkpt lat="52.0024527144" lon="-2.0538662653"><ele>-100.04</ele><time>2023-08-23T08:58:16Z</time></trkpt><trkpt lat="52.0024071168" lon="-2.0538571291"><ele>-100.03</ele><time>2023-08-23T08:58:42Z</time></trkpt><trkpt lat="52.0022771135" lon="-2.0538953505"><ele>-100.02</ele><time>2023-08-23T08:58:59Z</time></trkpt><trkpt lat="52.0021908637" lon="-2.0538317319"><ele>-100.02</ele><time>2023-08-23T08:59:14Z</time></trkpt><trkpt lat="52.0020927116" lon="-2.0537594799"><ele>-100.02</ele><time>2023-08-23T08:59:26Z</time></trkpt><trkpt lat="52.0020089764" lon="-2.0537184924"><ele>-100.02</ele><time>2023-08-23T08:59:38Z</time></trkpt><trkpt lat="52.0019389037" lon="-2.0536593162"><ele>-100.02</ele><time>2023-08-23T08:59:49Z</time></trkpt><trkpt lat="52.0018674061" lon="-2.0535965357"><ele>-100.02</ele><time>2023-08-23T09:00:01Z</time></trkpt><trkpt lat="52.0018087327" lon="-2.0535564702"><ele>-100.02</ele><time>2023-08-23T09:00:10Z</time></trkpt><trkpt lat="52.0016998518" lon="-2.0534978807"><ele>-100.02</ele><time>2023-08-23T09:00:25Z</time></trkpt><trkpt lat="52.0016605407" lon="-2.0534920134"><ele>-100.03</ele><time>2023-08-23T09:00:29Z</time></trkpt><trkpt lat="52.0015218202" lon="-2.0534439012"><ele>-99.44</ele><time>2023-08-23T09:00:46Z</time></trkpt><trkpt lat="52.0014375821" lon="-2.0533934422"><ele>-99.41</ele><time>2023-08-23T09:01:00Z</time></trkpt><trkpt lat="52.0013275277" lon="-2.0533237047"><ele>-99.52</ele><time>2023-08-23T09:01:19Z</time></trkpt><trkpt lat="52.0012606401" lon="-2.0532846451"><ele>-99.50</ele><time>2023-08-23T09:01:29Z</time></trkpt><trkpt lat="52.0012077503" lon="-2.0532432385"><ele>-99.63</ele><time>2023-08-23T09:01:43Z</time></trkpt><trkpt lat="52.0010928344" lon="-2.0531600062"><ele>-99.42</ele><time>2023-08-23T09:01:58Z</time></trkpt><trkpt lat="52.0009842888" lon="-2.0531499479"><ele>-99.33</ele><time>2023-08-23T09:02:12Z</time></trkpt><trkpt lat="52.0008764975" lon="-2.0530899335"><ele>-99.44</ele><time>2023-08-23T09:02:27Z</time></trkpt><trkpt lat="52.0007902477" lon="-2.0530390553"><ele>-99.11</ele><time>2023-08-23T09:02:38Z</time></trkpt><trkpt lat="52.0007086080" lon="-2.0529389754"><ele>-99.29</ele><time>2023-08-23T09:02:54Z</time></trkpt><trkpt lat="52.0007021539" lon="-2.0529341139"><ele>-99.33</ele><time>2023-08-23T09:02:55Z</time></trkpt><trkpt lat="52.0005877409" lon="-2.0528712496"><ele>-99.21</ele><time>2023-08-23T09:03:08Z</time></trkpt><trkpt lat="52.0004382916" lon="-2.0528299268"><ele>-98.40</ele><time>2023-08-23T09:03:29Z</time></trkpt><trkpt lat="52.0003597531" lon="-2.0527861733"><ele>-98.25</ele><time>2023-08-23T09:03:46Z</time></trkpt><trkpt lat="52.0002595894" lon="-2.0527566690"><ele>-97.72</ele><time>2023-08-23T09:04:02Z</time></trkpt><trkpt lat="52.0001467690" lon="-2.0526987500"><ele>-97.40</ele><time>2023-08-23T09:04:18Z</time></trkpt><trkpt lat="52.0000777021" lon="-2.0526494645"><ele>-97.17</ele><time>2023-08-23T09:04:30Z</time></trkpt><trkpt lat="51.9999914523" lon="-2.0526228938"><ele>-96.84</ele><time>2023-08-23T09:04:46Z</time></trkpt><trkpt lat="51.9999200385" lon="-2.0525767095"><ele>-96.80</ele><time>2023-08-23T09:05:01Z</time></trkpt><trkpt lat="51.9997565076" lon="-2.0525507256"><ele>-96.39</ele><time>2023-08-23T09:05:24Z</time></trkpt><trkpt lat="51.9995879475" lon="-2.0524995960"><ele>-95.79</ele><time>2023-08-23T09:05:47Z</time></trkpt><trkpt lat="51.9995008595" lon="-2.0524591114"><ele>-95.39</ele><time>2023-08-23T09:06:04Z</time></trkpt><trkpt lat="51.9994028751" lon="-2.0524263382"><ele>-94.57</ele><time>2023-08-23T09:06:26Z</time></trkpt><trkpt lat="51.9993036333" lon="-2.0523964148"><ele>-94.44</ele><time>2023-08-23T09:06:48Z</time></trkpt><trkpt lat="51.9993074052" lon="-2.0523627196"><ele>-94.52</ele><time>2023-08-23T09:06:50Z</time></trkpt><trkpt lat="51.9992775656" lon="-2.0522841811"><ele>-94.62</ele><time>2023-08-23T09:07:04Z</time></trkpt><trkpt lat="51.9992119353" lon="-2.0522375777"><ele>-94.62</ele><time>2023-08-23T09:07:11Z</time></trkpt><trkpt lat="51.9990258571" lon="-2.0521230809"><ele>-94.05</ele><time>2023-08-23T09:07:31Z</time></trkpt><trkpt lat="51.9990069978" lon="-2.0521020424"><ele>-93.99</ele><time>2023-08-23T09:07:33Z</time></trkpt><trkpt lat="51.9988265354" lon="-2.0519573707"><ele>-93.47</ele><time>2023-08-23T09:07:52Z</time></trkpt><trkpt lat="51.9986531977" lon="-2.0518909860"><ele>-92.85</ele><time>2023-08-23T09:08:09Z</time></trkpt><trkpt lat="51.9985299837" lon="-2.0518140402"><ele>-92.41</ele><time>2023-08-23T09:08:26Z</time></trkpt><trkpt lat="51.9983492699" lon="-2.0517070033"><ele>-92.00</ele><time>2023-08-23T09:08:54Z</time></trkpt><trkpt lat="51.9981526304" lon="-2.0515948534"><ele>-91.70</ele><time>2023-08-23T09:09:21Z</time></trkpt><trkpt lat="51.9980097190" lon="-2.0514951926"><ele>-91.38</ele><time>2023-08-23T09:09:44Z</time></trkpt><trkpt lat="51.9979759399" lon="-2.0514592342"><ele>-90.82</ele><time>2023-08-23T09:10:07Z</time></trkpt><trkpt lat="51.9979277439" lon="-2.0514310710"><ele>-90.85</ele><time>2023-08-23T09:10:29Z</time></trkpt><trkpt lat="51.9978533965" lon="-2.0514290594"><ele>-90.65</ele><time>2023-08-23T09:10:50Z</time></trkpt><trkpt lat="51.9977162685" lon="-2.0513742417"><ele>-90.65</ele><time>2023-08-23T09:11:13Z</time></trkpt><trkpt lat="51.9976382330" lon="-2.0513049234"><ele>-90.65</ele><time>2023-08-23T09:11:27Z</time></trkpt><trkpt lat="51.9975113310" lon="-2.0512442384"><ele>-90.15</ele><time>2023-08-23T09:11:44Z</time></trkpt><trkpt lat="51.9973069802" lon="-2.0511701424"><ele>-89.63</ele><time>2023-08-23T09:12:09Z</time></trkpt><trkpt lat="51.9971682597" lon="-2.0511056017"><ele>-89.42</ele><time>2023-08-23T09:12:31Z</time></trkpt><trkpt lat="51.9971391745" lon="-2.0510325953"><ele>-88.98</ele><time>2023-08-23T09:12:49Z</time></trkpt><trkpt lat="51.9971389230" lon="-2.0509629417"><ele>-88.93</ele><time>2023-08-23T09:12:56Z</time></trkpt><trkpt lat="51.9971468020" lon="-2.0507040247"><ele>-88.81</ele><time>2023-08-23T09:13:15Z</time></trkpt><trkpt lat="51.9971654937" lon="-2.0504923817"><ele>-89.71</ele><time>2023-08-23T09:13:37Z</time></trkpt><trkpt lat="51.9971644040" lon="-2.0503709279"><ele>-89.34</ele><time>2023-08-23T09:14:04Z</time></trkpt><trkpt lat="51.9971580338" lon="-2.0503226481"><ele>-89.34</ele><time>2023-08-23T09:14:32Z</time></trkpt><trkpt lat="51.9970730413" lon="-2.0502463728"><ele>-88.72</ele><time>2023-08-23T09:14:53Z</time></trkpt><trkpt lat="51.9970036391" lon="-2.0502053015"><ele>-88.38</ele><time>2023-08-23T09:15:26Z</time></trkpt><trkpt lat="51.9969434571" lon="-2.0501863584"><ele>-88.42</ele><time>2023-08-23T09:15:35Z</time></trkpt><trkpt lat="51.9968902320" lon="-2.0501555130"><ele>-88.36</ele><time>2023-08-23T09:15:41Z</time></trkpt><trkpt lat="51.9967604801" lon="-2.0500941575"><ele>-87.90</ele><time>2023-08-23T09:15:59Z</time></trkpt><trkpt lat="51.9965713844" lon="-2.0500795729"><ele>-87.38</ele><time>2023-08-23T09:16:26Z</time></trkpt><trkpt lat="51.9963097852" lon="-2.0503775496"><ele>-87.65</ele><time>2023-08-23T09:17:06Z</time></trkpt><trkpt lat="51.9963206816" lon="-2.0505826548"><ele>-89.47</ele><time>2023-08-23T09:17:28Z</time></trkpt><trkpt lat="51.9962983020" lon="-2.0508320164"><ele>-88.05</ele><time>2023-08-23T09:17:51Z</time></trkpt><trkpt lat="51.9962274749" lon="-2.0509054419"><ele>-88.80</ele><time>2023-08-23T09:18:11Z</time></trkpt><trkpt lat="51.9960720744" lon="-2.0509917755"><ele>-89.24</ele><time>2023-08-23T09:18:55Z</time></trkpt><trkpt lat="51.9960776903" lon="-2.0509971399"><ele>-92.49</ele><time>2023-08-23T09:19:01Z</time></trkpt><trkpt lat="51.9956742693" lon="-2.0512209367"><ele>-92.91</ele><time>2023-08-23T09:19:59Z</time></trkpt><trkpt lat="51.9956720062" lon="-2.0513257943"><ele>-93.12</ele><time>2023-08-23T09:20:11Z</time></trkpt><trkpt lat="51.9956963137" lon="-2.0515550394"><ele>-93.26</ele><time>2023-08-23T09:20:33Z</time></trkpt><trkpt lat="51.9957448449" lon="-2.0516952686"><ele>-93.13</ele><time>2023-08-23T09:20:45Z</time></trkpt><trkpt lat="51.9957913645" lon="-2.0518631581"><ele>-92.75</ele><time>2023-08-23T09:21:02Z</time></trkpt><trkpt lat="51.9958515465" lon="-2.0519442949"><ele>-93.26</ele><time>2023-08-23T09:21:15Z</time></trkpt><trkpt lat="51.9958789553" lon="-2.0519692730"><ele>-93.26</ele><time>2023-08-23T09:21:19Z</time></trkpt><trkpt lat="51.9959057774" lon="-2.0519998670"><ele>-93.24</ele><time>2023-08-23T09:21:23Z</time></trkpt><trkpt lat="51.9959542248" lon="-2.0521768928"><ele>-92.71</ele><time>2023-08-23T09:21:57Z</time></trkpt><trkpt lat="51.9960245490" lon="-2.0523247495"><ele>-92.71</ele><time>2023-08-23T09:22:25Z</time></trkpt><trkpt lat="51.9960543886" lon="-2.0523965824"><ele>-92.44</ele><time>2023-08-23T09:22:58Z</time></trkpt><trkpt lat="51.9960717391" lon="-2.0524557587"><ele>-92.91</ele><time>2023-08-23T09:23:16Z</time></trkpt><trkpt lat="51.9961185940" lon="-2.0525456965"><ele>-92.24</ele><time>2023-08-23T09:23:36Z</time></trkpt><trkpt lat="51.9961168338" lon="-2.0525498036"><ele>-92.98</ele><time>2023-08-23T09:24:01Z</time></trkpt><trkpt lat="51.9961955398" lon="-2.0526970737"><ele>-93.16</ele><time>2023-08-23T09:24:22Z</time></trkpt><trkpt lat="51.9962282293" lon="-2.0528561622"><ele>-93.79</ele><time>2023-08-23T09:24:43Z</time></trkpt><trkpt lat="51.9962296542" lon="-2.0528521389"><ele>-93.69</ele><time>2023-08-23T09:25:10Z</time></trkpt><trkpt lat="51.9962315820" lon="-2.0528680645"><ele>-93.82</ele><time>2023-08-23T09:25:33Z</time></trkpt><trkpt lat="51.9962882437" lon="-2.0529482793"><ele>-93.83</ele><time>2023-08-23T09:25:50Z</time></trkpt><trkpt lat="51.9962972961" lon="-2.0530661289"><ele>-93.83</ele><time>2023-08-23T09:26:08Z</time></trkpt><trkpt lat="51.9963133056" lon="-2.0531764347"><ele>-93.83</ele><time>2023-08-23T09:26:18Z</time></trkpt><trkpt lat="51.9963930175" lon="-2.0532482676"><ele>-94.44</ele><time>2023-08-23T09:26:32Z</time></trkpt><trkpt lat="51.9963987172" lon="-2.0533651952"><ele>-95.62</ele><time>2023-08-23T09:26:48Z</time></trkpt><trkpt lat="51.9964266289" lon="-2.0533858985"><ele>-94.84</ele><time>2023-08-23T09:27:06Z</time></trkpt><trkpt lat="51.9964799378" lon="-2.0535187516"><ele>-95.81</ele><time>2023-08-23T09:27:30Z</time></trkpt><trkpt lat="51.9965134654" lon="-2.0536829531"><ele>-96.05</ele><time>2023-08-23T09:27:49Z</time></trkpt><trkpt lat="51.9966311473" lon="-2.0538995415"><ele>-96.59</ele><time>2023-08-23T09:28:13Z</time></trkpt><trkpt lat="51.9966173172" lon="-2.0541028865"><ele>-97.05</ele><time>2023-08-23T09:28:34Z</time></trkpt><trkpt lat="51.9966049120" lon="-2.0541355759"><ele>-99.17</ele><time>2023-08-23T09:28:44Z</time></trkpt><trkpt lat="51.9965527765" lon="-2.0541805029"><ele>-96.17</ele><time>2023-08-23T09:28:53Z</time></trkpt><trkpt lat="51.9964907505" lon="-2.0542301238"><ele>-97.77</ele><time>2023-08-23T09:29:12Z</time></trkpt><trkpt lat="51.9963922631" lon="-2.0543979295"><ele>-97.99</ele><time>2023-08-23T09:29:32Z</time></trkpt><trkpt lat="51.9963585678" lon="-2.0544364024"><ele>-97.96</ele><time>2023-08-23T09:29:52Z</time></trkpt><trkpt lat="51.9962745812" lon="-2.0545220654"><ele>-98.03</ele><time>2023-08-23T09:30:18Z</time></trkpt><trkpt lat="51.9962407183" lon="-2.0545726921"><ele>-98.05</ele><time>2023-08-23T09:30:48Z</time></trkpt><trkpt lat="51.9962149020" lon="-2.0546487160"><ele>-98.05</ele><time>2023-08-23T09:31:10Z</time></trkpt><trkpt lat="51.9961759262" lon="-2.0547665656"><ele>-98.05</ele><time>2023-08-23T09:31:38Z</time></trkpt><trkpt lat="51.9961488526" lon="-2.0547938067"><ele>-98.05</ele><time>2023-08-23T09:31:59Z</time></trkpt><trkpt lat="51.9960884191" lon="-2.0548416674"><ele>-98.05</ele><time>2023-08-23T09:32:16Z</time></trkpt><trkpt lat="51.9960245490" lon="-2.0549651328"><ele>-98.05</ele><time>2023-08-23T09:32:32Z</time></trkpt><trkpt lat="51.9959861599" lon="-2.0550327748"><ele>-98.05</ele><time>2023-08-23T09:32:50Z</time></trkpt><trkpt lat="51.9959750120" lon="-2.0550668892"><ele>-98.05</ele><time>2023-08-23T09:33:14Z</time></trkpt><trkpt lat="51.9959543925" lon="-2.0550984051"><ele>-98.05</ele><time>2023-08-23T09:33:39Z</time></trkpt><trkpt lat="51.9958177675" lon="-2.0551979821"><ele>-98.05</ele><time>2023-08-23T09:34:06Z</time></trkpt><trkpt lat="51.9957481138" lon="-2.0552916080"><ele>-98.05</ele><time>2023-08-23T09:34:30Z</time></trkpt><trkpt lat="51.9957141671" lon="-2.0553769358"><ele>-98.05</ele><time>2023-08-23T09:34:53Z</time></trkpt><trkpt lat="51.9956300966" lon="-2.0553543046"><ele>-98.05</ele><time>2023-08-23T09:35:12Z</time></trkpt><trkpt lat="51.9955430925" lon="-2.0554207731"><ele>-98.05</ele><time>2023-08-23T09:35:37Z</time></trkpt><trkpt lat="51.9953891169" lon="-2.0553995669"><ele>-98.05</ele><time>2023-08-23T09:35:56Z</time></trkpt><trkpt lat="51.9952633046" lon="-2.0554470923"><ele>-98.05</ele><time>2023-08-23T09:36:13Z</time></trkpt><trkpt lat="51.9951011986" lon="-2.0553756785"><ele>-98.05</ele><time>2023-08-23T09:36:32Z</time></trkpt><trkpt lat="51.9950490631" lon="-2.0554164983"><ele>-98.05</ele><time>2023-08-23T09:36:52Z</time></trkpt><trkpt lat="51.9949992746" lon="-2.0553771872"><ele>-98.05</ele><time>2023-08-23T09:37:11Z</time></trkpt><trkpt lat="51.9949939940" lon="-2.0553475153"><ele>-98.05</ele><time>2023-08-23T09:37:36Z</time></trkpt><trkpt lat="51.9949526712" lon="-2.0553061925"><ele>-98.05</ele><time>2023-08-23T09:38:06Z</time></trkpt><trkpt lat="51.9949084986" lon="-2.0552149974"><ele>-98.05</ele><time>2023-08-23T09:38:25Z</time></trkpt><trkpt lat="51.9948333967" lon="-2.0551251434"><ele>-98.05</ele><time>2023-08-23T09:38:48Z</time></trkpt><trkpt lat="51.9947698619" lon="-2.0550657157"><ele>-98.05</ele><time>2023-08-23T09:39:09Z</time></trkpt><trkpt lat="51.9946378469" lon="-2.0549820643"><ele>-98.05</ele><time>2023-08-23T09:39:30Z</time></trkpt><trkpt lat="51.9944717176" lon="-2.0549874287"><ele>-98.05</ele><time>2023-08-23T09:39:53Z</time></trkpt><trkpt lat="51.9942999724" lon="-2.0549475309"><ele>-98.05</ele><time>2023-08-23T09:40:17Z</time></trkpt><trkpt lat="51.9941032492" lon="-2.0548671484"><ele>-98.05</ele><time>2023-08-23T09:40:46Z</time></trkpt><trkpt lat="51.9940973818" lon="-2.0548644662"><ele>-93.13</ele><time>2023-08-23T09:40:47Z</time></trkpt><trkpt lat="51.9940905925" lon="-2.0548601076"><ele>-93.74</ele><time>2023-08-23T09:40:48Z</time></trkpt><trkpt lat="51.9939740002" lon="-2.0548148453"><ele>-93.88</ele><time>2023-08-23T09:41:10Z</time></trkpt><trkpt lat="51.9939539675" lon="-2.0548021048"><ele>-93.62</ele><time>2023-08-23T09:41:35Z</time></trkpt><trkpt lat="51.9939014968" lon="-2.0547549985"><ele>-93.54</ele><time>2023-08-23T09:41:53Z</time></trkpt><trkpt lat="51.9937778637" lon="-2.0547222253"><ele>-93.29</ele><time>2023-08-23T09:42:12Z</time></trkpt><trkpt lat="51.9937165082" lon="-2.0546954870"><ele>-92.84</ele><time>2023-08-23T09:42:33Z</time></trkpt><trkpt lat="51.9935948029" lon="-2.0547306072"><ele>-91.59</ele><time>2023-08-23T09:42:52Z</time></trkpt><trkpt lat="51.9934886880" lon="-2.0547465328"><ele>-90.46</ele><time>2023-08-23T09:43:12Z</time></trkpt><trkpt lat="51.9933418371" lon="-2.0547617879"><ele>-89.00</ele><time>2023-08-23T09:43:34Z</time></trkpt><trkpt lat="51.9932663161" lon="-2.0547575969"><ele>-87.66</ele><time>2023-08-23T09:43:55Z</time></trkpt><trkpt lat="51.9931508973" lon="-2.0547251590"><ele>-86.30</ele><time>2023-08-23T09:44:14Z</time></trkpt><trkpt lat="51.9931269251" lon="-2.0547288470"><ele>-85.58</ele><time>2023-08-23T09:44:37Z</time></trkpt><trkpt lat="51.9930442795" lon="-2.0547528192"><ele>-84.32</ele><time>2023-08-23T09:44:59Z</time></trkpt><trkpt lat="51.9930303656" lon="-2.0547727682"><ele>-84.34</ele><time>2023-08-23T09:45:30Z</time></trkpt><trkpt lat="51.9930183794" lon="-2.0547746122"><ele>-84.19</ele><time>2023-08-23T09:45:54Z</time></trkpt><trkpt lat="51.9929767214" lon="-2.0547479577"><ele>-83.63</ele><time>2023-08-23T09:46:22Z</time></trkpt><trkpt lat="51.9928663317" lon="-2.0548225567"><ele>-82.77</ele><time>2023-08-23T09:46:37Z</time></trkpt><trkpt lat="51.9928235840" lon="-2.0548588503"><ele>-81.56</ele><time>2023-08-23T09:46:56Z</time></trkpt><trkpt lat="51.9927721191" lon="-2.0549107343"><ele>-81.63</ele><time>2023-08-23T09:47:18Z</time></trkpt><trkpt lat="51.9927509967" lon="-2.0549343713"><ele>-81.56</ele><time>2023-08-23T09:47:34Z</time></trkpt><trkpt lat="51.9927540142" lon="-2.0549384784"><ele>-81.13</ele><time>2023-08-23T09:47:57Z</time></trkpt><trkpt lat="51.9927212410" lon="-2.0549228042"><ele>-81.13</ele><time>2023-08-23T09:48:18Z</time></trkpt><trkpt lat="51.9925839454" lon="-2.0548763685"><ele>-81.13</ele><time>2023-08-23T09:48:42Z</time></trkpt><trkpt lat="51.9925325643" lon="-2.0548837446"><ele>-77.59</ele><time>2023-08-23T09:48:54Z</time></trkpt><trkpt lat="51.9925263617" lon="-2.0548858400"><ele>-77.56</ele><time>2023-08-23T09:48:55Z</time></trkpt><trkpt lat="51.9924214203" lon="-2.0549300127"><ele>-76.85</ele><time>2023-08-23T09:49:18Z</time></trkpt><trkpt lat="51.9923318177" lon="-2.0549902786"><ele>-75.28</ele><time>2023-08-23T09:49:30Z</time></trkpt><trkpt lat="51.9922328275" lon="-2.0550546516"><ele>-74.15</ele><time>2023-08-23T09:49:54Z</time></trkpt><trkpt lat="51.9921516906" lon="-2.0551170129"><ele>-73.03</ele><time>2023-08-23T09:50:13Z</time></trkpt><trkpt lat="51.9920863118" lon="-2.0552862436"><ele>-72.13</ele><time>2023-08-23T09:50:37Z</time></trkpt><trkpt lat="51.9919491000" lon="-2.0554019138"><ele>-71.22</ele><time>2023-08-23T09:51:06Z</time></trkpt><trkpt lat="51.9918205217" lon="-2.0554601680"><ele>-69.56</ele><time>2023-08-23T09:51:28Z</time></trkpt><trkpt lat="51.9917409774" lon="-2.0555086993"><ele>-68.42</ele><time>2023-08-23T09:51:51Z</time></trkpt><trkpt lat="51.9917092100" lon="-2.0554729085"><ele>-68.09</ele><time>2023-08-23T09:52:15Z</time></trkpt><trkpt lat="51.9916502852" lon="-2.0554738306"><ele>-66.72</ele><time>2023-08-23T09:52:41Z</time></trkpt><trkpt lat="51.9916324317" lon="-2.0554828830"><ele>-66.14</ele><time>2023-08-23T09:53:02Z</time></trkpt><trkpt lat="51.9916019216" lon="-2.0554515347"><ele>-65.85</ele><time>2023-08-23T09:53:23Z</time></trkpt><trkpt lat="51.9914883468" lon="-2.0554031711"><ele>-64.02</ele><time>2023-08-23T09:53:46Z</time></trkpt><trkpt lat="51.9913497940" lon="-2.0553805400"><ele>-61.01</ele><time>2023-08-23T09:54:07Z</time></trkpt><trkpt lat="51.9912270829" lon="-2.0553991478"><ele>-58.64</ele><time>2023-08-23T09:54:30Z</time></trkpt><trkpt lat="51.9911786355" lon="-2.0554256346"><ele>-57.92</ele><time>2023-08-23T09:54:50Z</time></trkpt><trkpt lat="51.9910562597" lon="-2.0554073621"><ele>-56.72</ele><time>2023-08-23T09:55:12Z</time></trkpt><trkpt lat="51.9909861032" lon="-2.0553722419"><ele>-55.03</ele><time>2023-08-23T09:55:28Z</time></trkpt><trkpt lat="51.9909051340" lon="-2.0553366188"><ele>-52.55</ele><time>2023-08-23T09:55:50Z</time></trkpt><trkpt lat="51.9908733666" lon="-2.0553580765"><ele>-51.45</ele><time>2023-08-23T09:56:09Z</time></trkpt><trkpt lat="51.9908125978" lon="-2.0553333499"><ele>-51.53</ele><time>2023-08-23T09:56:27Z</time></trkpt><trkpt lat="51.9907285273" lon="-2.0553166699"><ele>-50.04</ele><time>2023-08-23T09:56:49Z</time></trkpt><trkpt lat="51.9907249231" lon="-2.0553115569"><ele>-49.12</ele><time>2023-08-23T09:57:11Z</time></trkpt><trkpt lat="51.9907072373" lon="-2.0553037617"><ele>-48.85</ele><time>2023-08-23T09:57:35Z</time></trkpt><trkpt lat="51.9906772301" lon="-2.0552732516"><ele>-48.73</ele><time>2023-08-23T09:58:00Z</time></trkpt><trkpt lat="51.9906706084" lon="-2.0552318450"><ele>-48.77</ele><time>2023-08-23T09:58:18Z</time></trkpt><trkpt lat="51.9906860311" lon="-2.0552056935"><ele>-48.77</ele><time>2023-08-23T09:58:40Z</time></trkpt><trkpt lat="51.9907105062" lon="-2.0552607626"><ele>-48.77</ele><time>2023-08-23T09:58:58Z</time></trkpt><trkpt lat="51.9907153677" lon="-2.0552634448"><ele>-48.77</ele><time>2023-08-23T09:59:24Z</time></trkpt><trkpt lat="51.9907288626" lon="-2.0552565716"><ele>-48.77</ele><time>2023-08-23T10:00:11Z</time></trkpt><trkpt lat="51.9907172117" lon="-2.0552808791"><ele>-48.77</ele><time>2023-08-23T10:00:38Z</time></trkpt><trkpt lat="51.9907027110" lon="-2.0552983135"><ele>-48.77</ele><time>2023-08-23T10:01:16Z</time></trkpt><trkpt lat="51.9907063991" lon="-2.0553133171"><ele>-48.77</ele><time>2023-08-23T10:01:45Z</time></trkpt><trkpt lat="51.9907022920" lon="-2.0552709885"><ele>-48.77</ele><time>2023-08-23T10:02:47Z</time></trkpt><trkpt lat="51.9906991906" lon="-2.0552779455"><ele>-48.77</ele><time>2023-08-23T10:03:29Z</time></trkpt><trkpt lat="51.9907125179" lon="-2.0553077850"><ele>-48.77</ele><time>2023-08-23T10:04:53Z</time></trkpt><trkpt lat="51.9907133561" lon="-2.0552941225"><ele>-48.77</ele><time>2023-08-23T10:05:44Z</time></trkpt><trkpt lat="51.9906989392" lon="-2.0552813821"><ele>-48.77</ele><time>2023-08-23T10:06:43Z</time></trkpt><trkpt lat="51.9907087460" lon="-2.0552781131"><ele>-48.77</ele><time>2023-08-23T10:07:52Z</time></trkpt><trkpt lat="51.9907072373" lon="-2.0552930329"><ele>-48.77</ele><time>2023-08-23T10:09:07Z</time></trkpt><trkpt lat="51.9906991906" lon="-2.0552970562"><ele>-48.77</ele><time>2023-08-23T10:10:14Z</time></trkpt><trkpt lat="51.9906658307" lon="-2.0552657079"><ele>-48.77</ele><time>2023-08-23T10:11:40Z</time></trkpt><trkpt lat="51.9906829298" lon="-2.0552641992"><ele>-48.77</ele><time>2023-08-23T10:12:24Z</time></trkpt><trkpt lat="51.9906810857" lon="-2.0552859921"><ele>-48.77</ele><time>2023-08-23T10:13:25Z</time></trkpt><trkpt lat="51.9906956702" lon="-2.0552943740"><ele>-48.77</ele><time>2023-08-23T10:14:20Z</time></trkpt><trkpt lat="51.9907002803" lon="-2.0553113054"><ele>-48.77</ele><time>2023-08-23T10:16:02Z</time></trkpt><trkpt lat="51.9906983525" lon="-2.0552881714"><ele>-48.77</ele><time>2023-08-23T10:16:53Z</time></trkpt><trkpt lat="51.9907022920" lon="-2.0552799571"><ele>-48.77</ele><time>2023-08-23T10:17:46Z</time></trkpt><trkpt lat="51.9907055609" lon="-2.0552736707"><ele>-48.77</ele><time>2023-08-23T10:18:39Z</time></trkpt><trkpt lat="51.9906958379" lon="-2.0552791189"><ele>-48.77</ele><time>2023-08-23T10:19:09Z</time></trkpt><trkpt lat="51.9906955864" lon="-2.0552830584"><ele>-48.77</ele><time>2023-08-23T10:19:36Z</time></trkpt><trkpt lat="51.9906950835" lon="-2.0552865788"><ele>-48.77</ele><time>2023-08-23T10:20:01Z</time></trkpt><trkpt lat="51.9907086622" lon="-2.0552782807"><ele>-48.77</ele><time>2023-08-23T10:20:35Z</time></trkpt><trkpt lat="51.9907058962" lon="-2.0552865788"><ele>-48.77</ele><time>2023-08-23T10:20:54Z</time></trkpt><trkpt lat="51.9907141943" lon="-2.0552675519"><ele>-48.77</ele><time>2023-08-23T10:20:57Z</time></trkpt><trkpt lat="51.9906968437" lon="-2.0552609302"><ele>-48.90</ele><time>2023-08-23T10:21:12Z</time></trkpt><trkpt lat="51.9906818401" lon="-2.0552724972"><ele>-48.79</ele><time>2023-08-23T10:21:21Z</time></trkpt><trkpt lat="51.9906965084" lon="-2.0552691445"><ele>-48.78</ele><time>2023-08-23T10:21:30Z</time></trkpt><trkpt lat="51.9906925689" lon="-2.0552662946"><ele>-48.85</ele><time>2023-08-23T10:21:36Z</time></trkpt><trkpt lat="51.9906943291" lon="-2.0552654564"><ele>-48.66</ele><time>2023-08-23T10:22:03Z</time></trkpt><trkpt lat="51.9907169603" lon="-2.0552695636"><ele>-48.66</ele><time>2023-08-23T10:22:19Z</time></trkpt><trkpt lat="51.9907219894" lon="-2.0552767720"><ele>-48.66</ele><time>2023-08-23T10:22:45Z</time></trkpt><trkpt lat="51.9907107577" lon="-2.0552917756"><ele>-48.66</ele><time>2023-08-23T10:23:10Z</time></trkpt><trkpt lat="51.9907146133" lon="-2.0552891772"><ele>-48.66</ele><time>2023-08-23T10:23:33Z</time></trkpt><trkpt lat="51.9906984363" lon="-2.0552906860"><ele>-48.66</ele><time>2023-08-23T10:23:51Z</time></trkpt><trkpt lat="51.9906907249" lon="-2.0552698988"><ele>-48.66</ele><time>2023-08-23T10:24:15Z</time></trkpt><trkpt lat="51.9906888809" lon="-2.0552801248"><ele>-48.66</ele><time>2023-08-23T10:24:50Z</time></trkpt><trkpt lat="51.9906938262" lon="-2.0552996546"><ele>-48.66</ele><time>2023-08-23T10:25:06Z</time></trkpt><trkpt lat="51.9907892123" lon="-2.0553718228"><ele>-48.50</ele><time>2023-08-23T10:25:23Z</time></trkpt><trkpt lat="51.9907970075" lon="-2.0553766843"><ele>-48.59</ele><time>2023-08-23T10:25:24Z</time></trkpt><trkpt lat="51.9909196347" lon="-2.0553996507"><ele>-50.97</ele><time>2023-08-23T10:25:44Z</time></trkpt><trkpt lat="51.9909592811" lon="-2.0554394647"><ele>-51.81</ele><time>2023-08-23T10:26:18Z</time></trkpt><trkpt lat="51.9909948204" lon="-2.0554556418"><ele>-52.66</ele><time>2023-08-23T10:26:35Z</time></trkpt><trkpt lat="51.9911020249" lon="-2.0554650296"><ele>-53.90</ele><time>2023-08-23T10:26:55Z</time></trkpt><trkpt lat="51.9911920466" lon="-2.0554474276"><ele>-55.34</ele><time>2023-08-23T10:27:18Z</time></trkpt><trkpt lat="51.9912108220" lon="-2.0554361958"><ele>-55.76</ele><time>2023-08-23T10:27:37Z</time></trkpt><trkpt lat="51.9912969880" lon="-2.0554371178"><ele>-56.55</ele><time>2023-08-23T10:28:03Z</time></trkpt><trkpt lat="51.9913991634" lon="-2.0554198511"><ele>-58.81</ele><time>2023-08-23T10:28:31Z</time></trkpt><trkpt lat="51.9914370496" lon="-2.0554364473"><ele>-59.91</ele><time>2023-08-23T10:28:56Z</time></trkpt><trkpt lat="51.9914763607" lon="-2.0554563124"><ele>-59.88</ele><time>2023-08-23T10:29:23Z</time></trkpt><trkpt lat="51.9916217029" lon="-2.0554573182"><ele>-62.55</ele><time>2023-08-23T10:29:49Z</time></trkpt><trkpt lat="51.9917194359" lon="-2.0554579888"><ele>-64.12</ele><time>2023-08-23T10:30:11Z</time></trkpt><trkpt lat="51.9917800371" lon="-2.0554496069"><ele>-64.71</ele><time>2023-08-23T10:30:31Z</time></trkpt><trkpt lat="51.9918206893" lon="-2.0554183424"><ele>-65.56</ele><time>2023-08-23T10:30:52Z</time></trkpt><trkpt lat="51.9918619283" lon="-2.0554570667"><ele>-66.03</ele><time>2023-08-23T10:31:21Z</time></trkpt><trkpt lat="51.9919783529" lon="-2.0553759299"><ele>-66.33</ele><time>2023-08-23T10:31:43Z</time></trkpt><trkpt lat="51.9920985494" lon="-2.0552451722"><ele>-67.46</ele><time>2023-08-23T10:32:05Z</time></trkpt><trkpt lat="51.9921355974" lon="-2.0551211201"><ele>-67.89</ele><time>2023-08-23T10:32:22Z</time></trkpt><trkpt lat="51.9922028203" lon="-2.0550341159"><ele>-69.09</ele><time>2023-08-23T10:32:41Z</time></trkpt><trkpt lat="51.9922740664" lon="-2.0549538173"><ele>-69.70</ele><time>2023-08-23T10:33:08Z</time></trkpt><trkpt lat="51.9923574664" lon="-2.0549368858"><ele>-70.83</ele><time>2023-08-23T10:33:25Z</time></trkpt><trkpt lat="51.9924982823" lon="-2.0548682380"><ele>-71.93</ele><time>2023-08-23T10:33:50Z</time></trkpt><trkpt lat="51.9925809279" lon="-2.0548771229"><ele>-72.75</ele><time>2023-08-23T10:34:06Z</time></trkpt><trkpt lat="51.9926398527" lon="-2.0548935514"><ele>-73.45</ele><time>2023-08-23T10:34:21Z</time></trkpt><trkpt lat="51.9926924910" lon="-2.0548930485"><ele>-74.48</ele><time>2023-08-23T10:34:41Z</time></trkpt><trkpt lat="51.9927540142" lon="-2.0549165178"><ele>-76.07</ele><time>2023-08-23T10:35:04Z</time></trkpt><trkpt lat="51.9927768130" lon="-2.0548801403"><ele>-76.30</ele><time>2023-08-23T10:35:19Z</time></trkpt><trkpt lat="51.9927966781" lon="-2.0547964890"><ele>-75.61</ele><time>2023-08-23T10:35:38Z</time></trkpt><trkpt lat="51.9928431138" lon="-2.0547308587"><ele>-75.28</ele><time>2023-08-23T10:35:56Z</time></trkpt><trkpt lat="51.9928457122" lon="-2.0547193754"><ele>-75.28</ele><time>2023-08-23T10:36:17Z</time></trkpt><trkpt lat="51.9928499032" lon="-2.0547313616"><ele>-75.28</ele><time>2023-08-23T10:36:37Z</time></trkpt><trkpt lat="51.9929006975" lon="-2.0547077246"><ele>-75.28</ele><time>2023-08-23T10:37:01Z</time></trkpt><trkpt lat="51.9929773919" lon="-2.0546767954"><ele>-75.28</ele><time>2023-08-23T10:37:19Z</time></trkpt><trkpt lat="51.9930655695" lon="-2.0546661504"><ele>-75.28</ele><time>2023-08-23T10:37:42Z</time></trkpt><trkpt lat="51.9931263383" lon="-2.0546545833"><ele>-78.80</ele><time>2023-08-23T10:37:53Z</time></trkpt><trkpt lat="51.9931318704" lon="-2.0546545833"><ele>-79.00</ele><time>2023-08-23T10:37:54Z</time></trkpt><trkpt lat="51.9932252448" lon="-2.0546676591"><ele>-80.52</ele><time>2023-08-23T10:38:14Z</time></trkpt><trkpt lat="51.9933304377" lon="-2.0546683297"><ele>-82.00</ele><time>2023-08-23T10:38:34Z</time></trkpt><trkpt lat="51.9934365526" lon="-2.0546598639"><ele>-83.45</ele><time>2023-08-23T10:38:57Z</time></trkpt><trkpt lat="51.9935229700" lon="-2.0546653960"><ele>-84.39</ele><time>2023-08-23T10:39:19Z</time></trkpt><trkpt lat="51.9936476089" lon="-2.0546456147"><ele>-85.68</ele><time>2023-08-23T10:39:36Z</time></trkpt><trkpt lat="51.9937092159" lon="-2.0546567626"><ele>-86.71</ele><time>2023-08-23T10:39:54Z</time></trkpt><trkpt lat="51.9937348645" lon="-2.0546887815"><ele>-86.88</ele><time>2023-08-23T10:40:13Z</time></trkpt><trkpt lat="51.9937778637" lon="-2.0547027793"><ele>-86.92</ele><time>2023-08-23T10:40:31Z</time></trkpt><trkpt lat="51.9938823860" lon="-2.0547259133"><ele>-87.84</ele><time>2023-08-23T10:40:53Z</time></trkpt><trkpt lat="51.9938899297" lon="-2.0547359716"><ele>-88.02</ele><time>2023-08-23T10:41:17Z</time></trkpt><trkpt lat="51.9939012453" lon="-2.0547599439"><ele>-88.26</ele><time>2023-08-23T10:41:43Z</time></trkpt><trkpt lat="51.9939225353" lon="-2.0547671523"><ele>-87.90</ele><time>2023-08-23T10:42:05Z</time></trkpt><trkpt lat="51.9939367007" lon="-2.0547772106"><ele>-87.90</ele><time>2023-08-23T10:42:31Z</time></trkpt><trkpt lat="51.9939954579" lon="-2.0547757857"><ele>-87.90</ele><time>2023-08-23T10:42:55Z</time></trkpt><trkpt lat="51.9940608367" lon="-2.0547773782"><ele>-87.90</ele><time>2023-08-23T10:43:12Z</time></trkpt><trkpt lat="51.9941313285" lon="-2.0548262447"><ele>-87.90</ele><time>2023-08-23T10:43:32Z</time></trkpt><trkpt lat="51.9942014851" lon="-2.0548601914"><ele>-87.90</ele><time>2023-08-23T10:43:49Z</time></trkpt><trkpt lat="51.9942577276" lon="-2.0548891090"><ele>-87.90</ele><time>2023-08-23T10:44:06Z</time></trkpt><trkpt lat="51.9943293091" lon="-2.0549005084"><ele>-87.90</ele><time>2023-08-23T10:44:25Z</time></trkpt><trkpt lat="51.9943403732" lon="-2.0549187809"><ele>-87.90</ele><time>2023-08-23T10:44:43Z</time></trkpt><trkpt lat="51.9943566341" lon="-2.0549178589"><ele>-87.90</ele><time>2023-08-23T10:45:08Z</time></trkpt><trkpt lat="51.9943535328" lon="-2.0549203735"><ele>-87.90</ele><time>2023-08-23T10:45:35Z</time></trkpt><trkpt lat="51.9944065064" lon="-2.0549326111"><ele>-87.90</ele><time>2023-08-23T10:45:54Z</time></trkpt><trkpt lat="51.9944227673" lon="-2.0549137518"><ele>-87.90</ele><time>2023-08-23T10:46:13Z</time></trkpt><trkpt lat="51.9943992980" lon="-2.0549627859"><ele>-87.90</ele><time>2023-08-23T10:46:31Z</time></trkpt><trkpt lat="51.9943961129" lon="-2.0549665578"><ele>-87.90</ele><time>2023-08-23T10:46:58Z</time></trkpt><trkpt lat="51.9944340829" lon="-2.0549502969"><ele>-87.90</ele><time>2023-08-23T10:47:16Z</time></trkpt><trkpt lat="51.9944547862" lon="-2.0549684856"><ele>-87.90</ele><time>2023-08-23T10:47:34Z</time></trkpt><trkpt lat="51.9944564626" lon="-2.0549583435"><ele>-87.90</ele><time>2023-08-23T10:47:54Z</time></trkpt><trkpt lat="51.9944835361" lon="-2.0549437590"><ele>-87.90</ele><time>2023-08-23T10:48:14Z</time></trkpt><trkpt lat="51.9944302272" lon="-2.0549280010"><ele>-87.90</ele><time>2023-08-23T10:48:29Z</time></trkpt><trkpt lat="51.9944509305" lon="-2.0549105667"><ele>-87.90</ele><time>2023-08-23T10:48:46Z</time></trkpt><trkpt lat="51.9944726396" lon="-2.0549223851"><ele>-87.90</ele><time>2023-08-23T10:49:10Z</time></trkpt><trkpt lat="51.9944893196" lon="-2.0549694076"><ele>-87.90</ele><time>2023-08-23T10:49:26Z</time></trkpt><trkpt lat="51.9945116155" lon="-2.0549672283"><ele>-87.90</ele><time>2023-08-23T10:49:45Z</time></trkpt><trkpt lat="51.9946116116" lon="-2.0549487881"><ele>-87.90</ele><time>2023-08-23T10:50:03Z</time></trkpt><trkpt lat="51.9947422016" lon="-2.0549793821"><ele>-87.90</ele><time>2023-08-23T10:50:22Z</time></trkpt><trkpt lat="51.9948453829" lon="-2.0550397318"><ele>-91.06</ele><time>2023-08-23T10:50:34Z</time></trkpt><trkpt lat="51.9948519208" lon="-2.0550492033"><ele>-91.35</ele><time>2023-08-23T10:50:35Z</time></trkpt><trkpt lat="51.9949771464" lon="-2.0552073698"><ele>-92.10</ele><time>2023-08-23T10:50:55Z</time></trkpt><trkpt lat="51.9950958341" lon="-2.0553361997"><ele>-92.29</ele><time>2023-08-23T10:51:14Z</time></trkpt><trkpt lat="51.9952416793" lon="-2.0554050151"><ele>-92.46</ele><time>2023-08-23T10:51:37Z</time></trkpt><trkpt lat="51.9953290187" lon="-2.0554195158"><ele>-92.67</ele><time>2023-08-23T10:51:55Z</time></trkpt><trkpt lat="51.9954609498" lon="-2.0554043446"><ele>-92.86</ele><time>2023-08-23T10:52:13Z</time></trkpt><trkpt lat="51.9955648016" lon="-2.0553567354"><ele>-92.46</ele><time>2023-08-23T10:52:30Z</time></trkpt><trkpt lat="51.9956379756" lon="-2.0553163346"><ele>-92.54</ele><time>2023-08-23T10:52:47Z</time></trkpt><trkpt lat="51.9957163464" lon="-2.0552678034"><ele>-92.54</ele><time>2023-08-23T10:53:04Z</time></trkpt><trkpt lat="51.9957782887" lon="-2.0552094653"><ele>-92.54</ele><time>2023-08-23T10:53:21Z</time></trkpt><trkpt lat="51.9959239662" lon="-2.0550326072"><ele>-92.35</ele><time>2023-08-23T10:53:42Z</time></trkpt><trkpt lat="51.9959904347" lon="-2.0549461059"><ele>-92.83</ele><time>2023-08-23T10:54:03Z</time></trkpt><trkpt lat="51.9960038457" lon="-2.0549482852"><ele>-93.26</ele><time>2023-08-23T10:54:35Z</time></trkpt><trkpt lat="51.9959986489" lon="-2.0549457707"><ele>-92.81</ele><time>2023-08-23T10:54:59Z</time></trkpt><trkpt lat="51.9960045163" lon="-2.0549549069"><ele>-92.81</ele><time>2023-08-23T10:55:26Z</time></trkpt><trkpt lat="51.9960009120" lon="-2.0549390651"><ele>-92.81</ele><time>2023-08-23T10:55:51Z</time></trkpt><trkpt lat="51.9960004929" lon="-2.0549513865"><ele>-92.81</ele><time>2023-08-23T10:56:12Z</time></trkpt><trkpt lat="51.9959934521" lon="-2.0549424179"><ele>-92.81</ele><time>2023-08-23T10:56:37Z</time></trkpt><trkpt lat="51.9959928654" lon="-2.0549468603"><ele>-92.81</ele><time>2023-08-23T10:57:03Z</time></trkpt><trkpt lat="51.9959825557" lon="-2.0549188647"><ele>-92.81</ele><time>2023-08-23T10:57:21Z</time></trkpt><trkpt lat="51.9960279856" lon="-2.0548534021"><ele>-92.81</ele><time>2023-08-23T10:57:39Z</time></trkpt><trkpt lat="51.9960729964" lon="-2.0548053738"><ele>-92.81</ele><time>2023-08-23T10:57:55Z</time></trkpt><trkpt lat="51.9960740022" lon="-2.0547886100"><ele>-94.38</ele><time>2023-08-23T10:58:08Z</time></trkpt><trkpt lat="51.9960641116" lon="-2.0547926333"><ele>-95.35</ele><time>2023-08-23T10:59:14Z</time></trkpt><trkpt lat="51.9960678834" lon="-2.0547785517"><ele>-93.69</ele><time>2023-08-23T10:59:54Z</time></trkpt><trkpt lat="51.9960704818" lon="-2.0547880232"><ele>-93.46</ele><time>2023-08-23T11:00:18Z</time></trkpt><trkpt lat="51.9960877486" lon="-2.0547931362"><ele>-92.81</ele><time>2023-08-23T11:00:34Z</time></trkpt><trkpt lat="51.9961053506" lon="-2.0547594409"><ele>-94.12</ele><time>2023-08-23T11:00:49Z</time></trkpt><trkpt lat="51.9961254671" lon="-2.0547427610"><ele>-94.06</ele><time>2023-08-23T11:00:53Z</time></trkpt><trkpt lat="51.9961488526" lon="-2.0547000971"><ele>-94.01</ele><time>2023-08-23T11:00:56Z</time></trkpt><trkpt lat="51.9963208493" lon="-2.0544028748"><ele>-93.99</ele><time>2023-08-23T11:01:18Z</time></trkpt><trkpt lat="51.9964835420" lon="-2.0541576203"><ele>-93.68</ele><time>2023-08-23T11:01:39Z</time></trkpt><trkpt lat="51.9965542853" lon="-2.0539370086"><ele>-93.26</ele><time>2023-08-23T11:01:55Z</time></trkpt><trkpt lat="51.9964315742" lon="-2.0535656065"><ele>-92.06</ele><time>2023-08-23T11:02:17Z</time></trkpt><trkpt lat="51.9963563886" lon="-2.0534174982"><ele>-91.50</ele><time>2023-08-23T11:02:28Z</time></trkpt><trkpt lat="51.9961594976" lon="-2.0533579029"><ele>-91.45</ele><time>2023-08-23T11:02:50Z</time></trkpt><trkpt lat="51.9960610103" lon="-2.0533681288"><ele>-91.63</ele><time>2023-08-23T11:03:06Z</time></trkpt><trkpt lat="51.9959161710" lon="-2.0534019079"><ele>-91.71</ele><time>2023-08-23T11:03:24Z</time></trkpt><trkpt lat="51.9957665540" lon="-2.0534651913"><ele>-91.66</ele><time>2023-08-23T11:03:41Z</time></trkpt><trkpt lat="51.9956131652" lon="-2.0534547977"><ele>-91.34</ele><time>2023-08-23T11:04:01Z</time></trkpt><trkpt lat="51.9954708405" lon="-2.0534143969"><ele>-91.20</ele><time>2023-08-23T11:04:18Z</time></trkpt><trkpt lat="51.9953562599" lon="-2.0533826295"><ele>-90.22</ele><time>2023-08-23T11:04:36Z</time></trkpt><trkpt lat="51.9952975027" lon="-2.0534024946"><ele>-89.17</ele><time>2023-08-23T11:04:58Z</time></trkpt><trkpt lat="51.9952025358" lon="-2.0533421449"><ele>-87.86</ele><time>2023-08-23T11:05:20Z</time></trkpt><trkpt lat="51.9951926451" lon="-2.0533529576"><ele>-87.53</ele><time>2023-08-23T11:05:46Z</time></trkpt><trkpt lat="51.9952495582" lon="-2.0532035083"><ele>-87.95</ele><time>2023-08-23T11:08:45Z</time></trkpt><trkpt lat="51.9952261727" lon="-2.0532942843"><ele>-87.93</ele><time>2023-08-23T11:08:50Z</time></trkpt><trkpt lat="51.9951878674" lon="-2.0533467550"><ele>-87.89</ele><time>2023-08-23T11:10:49Z</time></trkpt><trkpt lat="51.9952869415" lon="-2.0534198452"><ele>-88.76</ele><time>2023-08-23T11:14:04Z</time></trkpt><trkpt lat="51.9953348022" lon="-2.0533671230"><ele>-88.76</ele><time>2023-08-23T11:14:25Z</time></trkpt><trkpt lat="51.9952588622" lon="-2.0531232096"><ele>-89.58</ele><time>2023-08-23T11:14:47Z</time></trkpt><trkpt lat="51.9951968361" lon="-2.0529583376"><ele>-88.55</ele><time>2023-08-23T11:15:05Z</time></trkpt><trkpt lat="51.9952698424" lon="-2.0528481156"><ele>-88.02</ele><time>2023-08-23T11:15:23Z</time></trkpt><trkpt lat="51.9953273423" lon="-2.0528064575"><ele>-88.06</ele><time>2023-08-23T11:15:31Z</time></trkpt><trkpt lat="51.9954466168" lon="-2.0527114067"><ele>-88.81</ele><time>2023-08-23T11:15:48Z</time></trkpt><trkpt lat="51.9954546634" lon="-2.0524126757"><ele>-89.03</ele><time>2023-08-23T11:16:09Z</time></trkpt><trkpt lat="51.9955021050" lon="-2.0521738753"><ele>-88.83</ele><time>2023-08-23T11:16:31Z</time></trkpt><trkpt lat="51.9955282565" lon="-2.0521304570"><ele>-88.83</ele><time>2023-08-23T11:16:41Z</time></trkpt><trkpt lat="51.9955819007" lon="-2.0520643238"><ele>-88.88</ele><time>2023-08-23T11:16:49Z</time></trkpt><trkpt lat="51.9956840761" lon="-2.0518960990"><ele>-88.61</ele><time>2023-08-23T11:17:05Z</time></trkpt><trkpt lat="51.9956723414" lon="-2.0516264532"><ele>-87.73</ele><time>2023-08-23T11:17:23Z</time></trkpt><trkpt lat="51.9956426695" lon="-2.0513298176"><ele>-87.94</ele><time>2023-08-23T11:17:43Z</time></trkpt><trkpt lat="51.9956233911" lon="-2.0511001535"><ele>-87.82</ele><time>2023-08-23T11:18:03Z</time></trkpt><trkpt lat="51.9956835732" lon="-2.0509830583"><ele>-87.82</ele><time>2023-08-23T11:18:19Z</time></trkpt><trkpt lat="51.9958757702" lon="-2.0509641152"><ele>-86.86</ele><time>2023-08-23T11:18:40Z</time></trkpt><trkpt lat="51.9960842282" lon="-2.0509237144"><ele>-85.19</ele><time>2023-08-23T11:19:05Z</time></trkpt><trkpt lat="51.9962573983" lon="-2.0507903583"><ele>-83.40</ele><time>2023-08-23T11:19:29Z</time></trkpt><trkpt lat="51.9962754194" lon="-2.0504873525"><ele>-82.83</ele><time>2023-08-23T11:19:48Z</time></trkpt><trkpt lat="51.9963552989" lon="-2.0501354802"><ele>-82.30</ele><time>2023-08-23T11:20:11Z</time></trkpt><trkpt lat="51.9964045007" lon="-2.0500510745"><ele>-81.86</ele><time>2023-08-23T11:20:30Z</time></trkpt><trkpt lat="51.9964895770" lon="-2.0500815846"><ele>-81.94</ele><time>2023-08-23T11:20:55Z</time></trkpt><trkpt lat="51.9965372700" lon="-2.0500927325"><ele>-82.11</ele><time>2023-08-23T11:21:00Z</time></trkpt><trkpt lat="51.9966785889" lon="-2.0501205605"><ele>-82.18</ele><time>2023-08-23T11:21:19Z</time></trkpt><trkpt lat="51.9968692772" lon="-2.0501422696"><ele>-82.62</ele><time>2023-08-23T11:21:42Z</time></trkpt><trkpt lat="51.9970126078" lon="-2.0501626376"><ele>-82.69</ele><time>2023-08-23T11:22:00Z</time></trkpt><trkpt lat="51.9971053954" lon="-2.0502467919"><ele>-83.23</ele><time>2023-08-23T11:22:18Z</time></trkpt><trkpt lat="51.9970914815" lon="-2.0504711755"><ele>-83.44</ele><time>2023-08-23T11:22:36Z</time></trkpt><trkpt lat="51.9970704429" lon="-2.0507136639"><ele>-83.45</ele><time>2023-08-23T11:22:55Z</time></trkpt><trkpt lat="51.9970834348" lon="-2.0509161707"><ele>-83.67</ele><time>2023-08-23T11:23:16Z</time></trkpt><trkpt lat="51.9972478878" lon="-2.0510710683"><ele>-83.93</ele><time>2023-08-23T11:23:34Z</time></trkpt><trkpt lat="51.9973722752" lon="-2.0511569828"><ele>-84.16</ele><time>2023-08-23T11:23:48Z</time></trkpt><trkpt lat="51.9975400809" lon="-2.0512402151"><ele>-84.48</ele><time>2023-08-23T11:24:08Z</time></trkpt><trkpt lat="51.9977232255" lon="-2.0513292309"><ele>-84.55</ele><time>2023-08-23T11:24:28Z</time></trkpt><trkpt lat="51.9978911150" lon="-2.0514197554"><ele>-84.90</ele><time>2023-08-23T11:24:45Z</time></trkpt><trkpt lat="51.9979290850" lon="-2.0514450688"><ele>-85.23</ele><time>2023-08-23T11:24:58Z</time></trkpt><trkpt lat="51.9979484472" lon="-2.0514620002"><ele>-85.22</ele><time>2023-08-23T11:25:00Z</time></trkpt><trkpt lat="51.9981745910" lon="-2.0516241901"><ele>-85.76</ele><time>2023-08-23T11:25:21Z</time></trkpt><trkpt lat="51.9984237012" lon="-2.0517604798"><ele>-86.11</ele><time>2023-08-23T11:25:43Z</time></trkpt><trkpt lat="51.9986995496" lon="-2.0518878847"><ele>-86.46</ele><time>2023-08-23T11:26:08Z</time></trkpt><trkpt lat="51.9989204127" lon="-2.0520230848"><ele>-87.19</ele><time>2023-08-23T11:26:29Z</time></trkpt><trkpt lat="51.9991620630" lon="-2.0521514118"><ele>-87.78</ele><time>2023-08-23T11:26:52Z</time></trkpt><trkpt lat="51.9993462134" lon="-2.0523218997"><ele>-88.11</ele><time>2023-08-23T11:27:11Z</time></trkpt><trkpt lat="51.9994110055" lon="-2.0523556788"><ele>-88.27</ele><time>2023-08-23T11:27:24Z</time></trkpt><trkpt lat="51.9994334690" lon="-2.0523680001"><ele>-88.30</ele><time>2023-08-23T11:27:26Z</time></trkpt><trkpt lat="51.9997233991" lon="-2.0525127556"><ele>-89.06</ele><time>2023-08-23T11:27:52Z</time></trkpt><trkpt lat="51.9999839086" lon="-2.0526002627"><ele>-89.43</ele><time>2023-08-23T11:28:15Z</time></trkpt><trkpt lat="52.0002430771" lon="-2.0527192857"><ele>-89.86</ele><time>2023-08-23T11:28:39Z</time></trkpt><trkpt lat="52.0004812907" lon="-2.0528291725"><ele>-90.23</ele><time>2023-08-23T11:29:01Z</time></trkpt><trkpt lat="52.0007135533" lon="-2.0529802144"><ele>-91.00</ele><time>2023-08-23T11:29:24Z</time></trkpt><trkpt lat="52.0009366795" lon="-2.0530889276"><ele>-90.98</ele><time>2023-08-23T11:29:47Z</time></trkpt><trkpt lat="52.0009444747" lon="-2.0530920289"><ele>-90.88</ele><time>2023-08-23T11:29:50Z</time></trkpt><trkpt lat="52.0009809360" lon="-2.0531153306"><ele>-90.90</ele><time>2023-08-23T11:29:54Z</time></trkpt><trkpt lat="52.0012240950" lon="-2.0532472618"><ele>-90.99</ele><time>2023-08-23T11:30:18Z</time></trkpt><trkpt lat="52.0014253445" lon="-2.0533859823"><ele>-91.40</ele><time>2023-08-23T11:30:40Z</time></trkpt><trkpt lat="52.0016626362" lon="-2.0535458252"><ele>-91.17</ele><time>2023-08-23T11:31:04Z</time></trkpt><trkpt lat="52.0018659811" lon="-2.0536255371"><ele>-91.41</ele><time>2023-08-23T11:31:23Z</time></trkpt><trkpt lat="52.0020845812" lon="-2.0537187438"><ele>-91.56</ele><time>2023-08-23T11:31:44Z</time></trkpt><trkpt lat="52.0022397302" lon="-2.0538120344"><ele>-91.57</ele><time>2023-08-23T11:32:01Z</time></trkpt><trkpt lat="52.0022652112" lon="-2.0538281277"><ele>-91.70</ele><time>2023-08-23T11:32:04Z</time></trkpt><trkpt lat="52.0023763552" lon="-2.0538353361"><ele>-91.49</ele><time>2023-08-23T11:32:23Z</time></trkpt><trkpt lat="52.0024168398" lon="-2.0538462326"><ele>-91.54</ele><time>2023-08-23T11:32:36Z</time></trkpt><trkpt lat="52.0025445800" lon="-2.0540582109"><ele>-91.47</ele><time>2023-08-23T11:32:54Z</time></trkpt><trkpt lat="52.0027773455" lon="-2.0541026350"><ele>-91.70</ele><time>2023-08-23T11:33:14Z</time></trkpt><trkpt lat="52.0028582308" lon="-2.0541245956"><ele>-91.73</ele><time>2023-08-23T11:33:22Z</time></trkpt><trkpt lat="52.0029095281" lon="-2.0540551096"><ele>-91.64</ele><time>2023-08-23T11:33:29Z</time></trkpt><trkpt lat="52.0029205084" lon="-2.0538154710"><ele>-91.27</ele><time>2023-08-23T11:33:47Z</time></trkpt><trkpt lat="52.0029433072" lon="-2.0538013056"><ele>-91.27</ele><time>2023-08-23T11:34:09Z</time></trkpt><trkpt lat="52.0029492583" lon="-2.0538006350"><ele>-91.27</ele><time>2023-08-23T11:34:26Z</time></trkpt><trkpt lat="52.0029526949" lon="-2.0537987910"><ele>-91.27</ele><time>2023-08-23T11:34:36Z</time></trkpt></trkseg></trk></gpx>